Time;durP1;ratioP1;P1;durP2;ratioP2;P2;SDS_P1;SDS_P2;PMS_P1;PMS_P2;Temp;Humidity;BMP_temperature;BMP_pressure;BME280_temperature;BME280_humidity;BME280_pressure;Samples;Min_cycle;Max_cycle;Signal;HPM_P1;HPM_P2
2023/02/23 00:01:13;;;;;;;5.28;2.72;;;20.90;47.40;;;;;;5128670;27;20057;-64
2023/02/23 00:03:40;;;;;;;3.63;2.65;;;20.90;47.40;;;;;;5128162;27;20043;-66
2023/02/23 00:06:08;;;;;;;4.47;2.22;;;20.90;47.50;;;;;;5128768;27;20661;-65
2023/02/23 00:08:37;;;;;;;2.63;1.75;;;20.90;47.50;;;;;;5128781;27;20071;-66
2023/02/23 00:11:05;;;;;;;2.53;1.45;;;20.90;47.60;;;;;;5128415;27;20050;-66
2023/02/23 00:13:36;;;;;;;2.97;2.10;;;20.90;47.60;;;;;;5128323;27;20062;-65
2023/02/23 00:16:07;;;;;;;2.65;2.38;;;20.90;47.60;;;;;;5128420;27;20120;-66
2023/02/23 00:18:43;;;;;;;2.13;1.65;;;20.90;47.70;;;;;;5128212;27;20130;-66
2023/02/23 00:21:14;;;;;;;2.15;1.95;;;20.90;47.70;;;;;;5127540;27;20060;-66
2023/02/23 00:23:44;;;;;;;3.03;1.58;;;20.90;47.70;;;;;;5125888;27;20079;-66
2023/02/23 00:26:12;;;;;;;2.35;1.95;;;20.90;47.70;;;;;;5127750;27;20050;-66
2023/02/23 00:28:42;;;;;;;5.18;2.17;;;20.90;47.60;;;;;;5127589;27;20411;-64
2023/02/23 00:31:10;;;;;;;6.00;2.08;;;20.90;47.70;;;;;;5127987;27;20046;-65
2023/02/23 00:33:38;;;;;;;2.88;1.73;;;20.90;47.60;;;;;;5127766;27;20123;-65
2023/02/23 00:36:08;;;;;;;2.83;1.92;;;20.90;47.70;;;;;;5106800;27;20082;-66
2023/02/23 00:38:36;;;;;;;2.65;1.70;;;20.90;47.70;;;;;;5098757;28;20048;-66
2023/02/23 00:41:09;;;;;;;1.95;1.65;;;20.90;47.70;;;;;;5125415;27;20130;-66
2023/02/23 00:43:37;;;;;;;1.58;1.48;;;20.90;47.70;;;;;;5127792;27;20415;-66
2023/02/23 00:46:06;;;;;;;3.50;2.13;;;20.90;47.70;;;;;;5127716;27;20147;-65
2023/02/23 00:48:33;;;;;;;2.03;1.25;;;20.90;47.80;;;;;;5109168;27;20452;-65
2023/02/23 00:51:02;;;;;;;4.80;1.63;;;20.90;47.90;;;;;;5127575;27;20523;-66
2023/02/23 00:53:29;;;;;;;2.10;1.83;;;20.90;47.90;;;;;;5127414;27;20039;-66
2023/02/23 00:55:56;;;;;;;1.92;1.55;;;20.90;48.40;;;;;;5127320;27;20043;-67
2023/02/23 00:58:25;;;;;;;1.98;1.70;;;20.90;47.80;;;;;;5109181;27;20054;-66
2023/02/23 01:00:52;;;;;;;1.08;1.00;;;20.90;47.80;;;;;;5127566;27;20080;-67
2023/02/23 01:03:21;;;;;;;2.83;1.83;;;20.90;47.90;;;;;;5127258;27;20150;-66
2023/02/23 01:05:49;;;;;;;1.95;1.85;;;20.90;47.90;;;;;;5127212;27;20042;-66
2023/02/23 01:08:17;;;;;;;5.93;1.60;;;20.90;48.00;;;;;;5126985;27;20054;-65
2023/02/23 01:10:51;;;;;;;3.95;1.90;;;20.90;48.00;;;;;;5127327;27;20051;-64
2023/02/23 01:13:18;;;;;;;5.45;0.98;;;20.90;48.10;;;;;;5127214;27;20054;-64
2023/02/23 01:15:48;;;;;;;3.40;1.63;;;20.90;48.10;;;;;;5107763;27;20122;-63
2023/02/23 01:18:17;;;;;;;1.40;1.30;;;20.90;48.10;;;;;;5108575;27;20125;-64
2023/02/23 01:20:45;;;;;;;3.97;3.40;;;20.90;48.10;;;;;;5126715;27;20043;-64
2023/02/23 01:23:13;;;;;;;4.50;1.58;;;20.80;48.00;;;;;;5125686;27;20078;-64
2023/02/23 01:25:42;;;;;;;1.73;1.63;;;20.90;48.20;;;;;;5108235;27;20051;-65
2023/02/23 01:28:09;;;;;;;2.08;1.20;;;20.80;48.10;;;;;;5108254;27;20039;-64
2023/02/23 01:30:38;;;;;;;1.42;0.90;;;20.80;48.10;;;;;;5122992;27;20043;-64
2023/02/23 01:33:11;;;;;;;1.42;1.42;;;20.80;48.10;;;;;;5107771;27;20839;-64
2023/02/23 01:35:38;;;;;;;1.88;0.55;;;20.80;48.20;;;;;;5108351;27;20047;-63
2023/02/23 01:38:05;;;;;;;3.38;1.58;;;20.80;48.20;;;;;;5107362;27;20036;-63
2023/02/23 01:40:35;;;;;;;1.77;0.82;;;20.80;48.20;;;;;;5126302;27;20074;-62
2023/02/23 01:43:13;;;;;;;3.17;0.85;;;20.80;48.20;;;;;;5126767;27;20120;-62
2023/02/23 01:45:41;;;;;;;2.70;1.45;;;20.80;48.20;;;;;;5108225;27;20471;-62
2023/02/23 01:48:14;;;;;;;1.00;0.93;;;20.80;48.20;;;;;;5126481;27;20050;-62
2023/02/23 01:50:47;;;;;;;3.30;0.90;;;20.80;48.10;;;;;;5126365;27;20062;-62
2023/02/23 01:53:14;;;;;;;0.85;0.77;;;20.80;48.10;;;;;;5126429;27;20062;-61
2023/02/23 01:55:43;;;;;;;1.45;0.80;;;20.80;48.20;;;;;;5108335;28;20035;-61
2023/02/23 01:58:15;;;;;;;2.17;0.52;;;20.80;48.00;;;;;;5108024;28;20119;-61
2023/02/23 02:00:46;;;;;;;1.17;0.65;;;20.80;48.00;;;;;;5107593;28;20036;-61
2023/02/23 02:03:23;;;;;;;4.65;1.58;;;20.80;48.00;;;;;;5107894;28;20540;-61
2023/02/23 02:05:51;;;;;;;1.10;0.35;;;20.80;48.00;;;;;;5126356;28;20538;-60
2023/02/23 02:08:19;;;;;;;3.03;1.20;;;20.80;48.00;;;;;;5107634;28;20039;-61
2023/02/23 02:10:46;;;;;;;2.15;0.77;;;20.80;48.00;;;;;;5107742;28;20047;-61
2023/02/23 02:13:21;;;;;;;5.45;1.48;;;20.80;48.00;;;;;;5107568;28;20035;-62
2023/02/23 02:16:15;;;;;;;4.10;0.60;;;20.80;47.90;;;;;;5108040;28;20425;-62
2023/02/23 02:19:04;;;;;;;1.65;0.60;;;20.80;47.90;;;;;;5125141;28;20047;-62
2023/02/23 02:22:07;;;;;;;2.80;0.70;;;20.70;47.90;;;;;;5107543;28;20546;-62
2023/02/23 02:25:10;;;;;;;0.80;0.40;;;20.70;47.80;;;;;;5107949;28;20036;-61
2023/02/23 02:28:13;;;;;;;1.35;1.13;;;20.70;47.70;;;;;;5128915;27;20511;-61
2023/02/23 02:30:54;;;;;;;1.17;1.10;;;20.70;47.80;;;;;;5130249;27;20072;-62
2023/02/23 02:33:59;;;;;;;1.40;0.60;;;20.70;47.80;;;;;;5130277;27;20062;-61
2023/02/23 02:37:08;;;;;;;1.13;0.30;;;20.70;47.80;;;;;;5126300;27;20063;-62
2023/02/23 02:39:45;;;;;;;1.83;0.63;;;20.70;47.90;;;;;;5049431;28;21014;-62
2023/02/23 02:42:21;;;;;;;0.85;0.40;;;20.60;47.90;;;;;;5049164;28;20172;-61
2023/02/23 02:44:55;;;;;;;1.23;0.70;;;20.70;48.50;;;;;;5029289;28;20116;-62
2023/02/23 02:47:28;;;;;;;1.05;0.40;;;20.60;47.70;;;;;;5029623;28;20059;-62
2023/02/23 02:50:05;;;;;;;2.63;0.40;;;20.70;47.80;;;;;;5045426;28;20049;-61
2023/02/23 02:52:40;;;;;;;0.73;0.20;;;20.70;47.80;;;;;;5046050;28;20067;-62
2023/02/23 02:55:16;;;;;;;6.70;0.50;;;20.60;47.70;;;;;;5029217;28;20553;-62
2023/02/23 02:57:46;;;;;;;3.58;0.63;;;20.60;47.70;;;;;;5029176;28;20064;-61
2023/02/23 04:19:11;;;;;;;0.85;0.20;;;20.60;47.70;;;;;;5127903;27;20050;-61
2023/02/23 04:21:39;;;;;;;1.55;0.30;;;20.60;47.70;;;;;;5127818;27;20130;-60
2023/02/23 04:24:06;;;;;;;4.13;0.30;;;20.60;47.60;;;;;;5128042;27;20039;-61
2023/02/23 04:26:33;;;;;;;1.35;0.20;;;20.60;47.60;;;;;;5128195;27;20050;-61
2023/02/23 04:29:00;;;;;;;2.13;0.40;;;20.60;47.50;;;;;;5127895;27;20411;-62
2023/02/23 04:31:27;;;;;;;4.35;1.75;;;20.60;47.50;;;;;;5120536;27;20057;-61
2023/02/23 04:33:56;;;;;;;0.50;0.10;;;20.60;47.40;;;;;;5107336;28;20393;-61
2023/02/23 04:36:25;;;;;;;2.00;0.30;;;20.60;47.40;;;;;;5108610;27;20124;-61
2023/02/23 04:38:52;;;;;;;2.67;0.28;;;20.60;47.30;;;;;;5127474;27;20043;-62
2023/02/23 04:41:19;;;;;;;4.50;0.30;;;20.60;47.30;;;;;;5127870;27;20077;-62
2023/02/23 04:43:46;;;;;;;0.32;0.20;;;20.60;47.30;;;;;;5128039;27;20043;-61
2023/02/23 04:46:14;;;;;;;1.08;0.75;;;20.60;47.20;;;;;;5127231;27;20051;-61
2023/02/23 04:48:41;;;;;;;1.30;0.50;;;20.60;47.20;;;;;;5127869;27;20050;-61
2023/02/23 04:51:09;;;;;;;0.90;0.40;;;20.60;47.10;;;;;;5127486;27;20043;-61
2023/02/23 04:53:38;;;;;;;0.20;0.20;;;20.60;47.20;;;;;;5127598;27;20837;-60
2023/02/23 04:56:06;;;;;;;0.75;0.10;;;20.60;47.20;;;;;;5127553;27;20079;-60
2023/02/23 04:58:34;;;;;;;0.50;0.50;;;20.60;47.20;;;;;;5127371;27;20043;-60
2023/02/23 05:01:05;;;;;;;1.52;0.40;;;20.60;47.20;;;;;;5127300;27;20079;-61
2023/02/23 05:03:33;;;;;;;0.68;0.20;;;20.60;47.10;;;;;;5127344;27;20129;-60
2023/02/23 05:06:00;;;;;;;1.42;0.20;;;20.50;47.10;;;;;;5127347;27;20043;-60
2023/02/23 05:08:28;;;;;;;2.20;0.55;;;20.50;47.00;;;;;;5127572;27;20137;-62
2023/02/23 05:10:55;;;;;;;1.50;0.40;;;20.60;47.00;;;;;;5127286;27;20054;-62
2023/02/23 05:13:22;;;;;;;1.75;0.20;;;20.50;47.00;;;;;;5127184;27;20047;-62
2023/02/23 05:15:50;;;;;;;2.72;0.20;;;20.50;47.10;;;;;;5126685;27;20043;-62
2023/02/23 05:18:18;;;;;;;0.40;0.20;;;20.50;47.00;;;;;;5127141;27;20050;-63
2023/02/23 05:20:45;;;;;;;1.33;0.30;;;20.50;47.00;;;;;;5126821;27;20035;-61
2023/02/23 05:23:12;;;;;;;1.90;0.63;;;20.50;47.00;;;;;;5126282;27;20061;-63
2023/02/23 05:25:40;;;;;;;1.02;0.17;;;20.50;47.00;;;;;;5108404;27;20039;-62
2023/02/23 05:28:07;;;;;;;0.55;0.13;;;20.50;47.00;;;;;;5115215;27;20122;-62
2023/02/23 05:30:35;;;;;;;1.90;0.40;;;20.50;47.10;;;;;;5126649;27;20050;-61
2023/02/23 05:33:03;;;;;;;0.38;0.20;;;20.50;47.00;;;;;;5127283;27;20553;-64
2023/02/23 05:35:30;;;;;;;1.25;0.30;;;20.50;47.00;;;;;;5126544;27;20046;-65
2023/02/23 05:37:57;;;;;;;1.85;0.75;;;20.50;47.10;;;;;;5126588;27;20043;-63
2023/02/23 05:40:24;;;;;;;1.75;0.90;;;20.50;47.10;;;;;;5126711;27;20131;-64
2023/02/23 05:42:58;;;;;;;2.72;0.50;;;20.50;47.10;;;;;;5126731;27;20047;-64
2023/02/23 05:45:25;;;;;;;0.40;0.40;;;20.50;47.00;;;;;;5126722;27;20116;-63
2023/02/23 05:47:52;;;;;;;8.25;0.30;;;20.50;47.00;;;;;;5127060;27;20039;-63
2023/02/23 05:50:19;;;;;;;2.78;0.50;;;20.50;47.00;;;;;;5126996;27;20115;-63
2023/02/23 05:52:46;;;;;;;4.35;0.30;;;20.50;46.90;;;;;;5127089;27;20035;-62
2023/02/23 05:55:14;;;;;;;4.05;0.47;;;20.50;46.90;;;;;;5127167;27;20046;-62
2023/02/23 05:57:41;;;;;;;3.70;0.63;;;20.50;47.00;;;;;;5127240;28;20035;-62
2023/02/23 06:00:12;;;;;;;1.40;0.20;;;20.50;46.90;;;;;;5126513;28;20043;-62
2023/02/23 06:02:40;;;;;;;5.43;0.50;;;20.50;47.00;;;;;;5126424;27;20058;-62
2023/02/23 06:05:08;;;;;;;2.28;0.22;;;20.50;46.90;;;;;;5126806;28;20039;-64
2023/02/23 06:07:36;;;;;;;2.38;0.52;;;20.50;46.90;;;;;;5127053;28;20051;-65
2023/02/23 06:10:03;;;;;;;2.58;1.00;;;20.50;46.90;;;;;;5126591;28;20519;-63
2023/02/23 06:12:30;;;;;;;0.22;0.20;;;20.50;46.90;;;;;;5126481;28;20043;-63
2023/02/23 06:14:57;;;;;;;4.85;0.50;;;20.50;46.90;;;;;;5126154;28;20410;-62
2023/02/23 06:17:28;;;;;;;1.25;0.60;;;20.40;46.90;;;;;;5126314;28;20126;-63
2023/02/23 06:19:55;;;;;;;3.15;0.55;;;20.40;46.90;;;;;;5126130;28;20118;-62
2023/02/23 06:22:21;;;;;;;1.50;0.20;;;20.50;46.90;;;;;;5126517;28;20058;-63
2023/02/23 06:24:48;;;;;;;3.22;0.43;;;20.50;46.90;;;;;;5126233;28;20521;-62
2023/02/23 06:27:16;;;;;;;1.45;0.32;;;20.50;46.80;;;;;;5125935;28;20100;-62
2023/02/23 06:29:43;;;;;;;0.52;0.52;;;20.50;46.90;;;;;;5126080;28;20743;-62
2023/02/23 06:32:10;;;;;;;2.25;0.50;;;20.40;46.80;;;;;;5126289;28;20494;-62
2023/02/23 06:34:40;;;;;;;1.23;0.45;;;20.50;46.90;;;;;;5104870;28;20772;-63
2023/02/23 06:37:07;;;;;;;1.05;0.57;;;20.50;46.80;;;;;;5107845;28;20089;-62
2023/02/23 06:39:34;;;;;;;2.58;0.43;;;20.40;46.70;;;;;;5126354;28;20051;-63
2023/02/23 06:42:02;;;;;;;0.93;0.30;;;20.40;46.80;;;;;;5125985;28;20531;-62
2023/02/23 06:44:34;;;;;;;1.40;0.40;;;20.40;46.80;;;;;;5126085;28;20058;-62
2023/02/23 06:47:01;;;;;;;2.40;0.70;;;20.40;46.90;;;;;;5120101;27;20038;-63
2023/02/23 06:49:29;;;;;;;0.80;0.80;;;20.40;46.80;;;;;;5105660;28;20122;-61
2023/02/23 06:51:57;;;;;;;0.90;0.40;;;20.40;46.90;;;;;;5105581;28;20077;-62
2023/02/23 06:54:25;;;;;;;1.13;0.73;;;20.40;46.90;;;;;;5105612;28;20048;-62
2023/02/23 06:56:54;;;;;;;1.10;0.47;;;20.40;46.90;;;;;;5105217;28;20048;-61
2023/02/23 06:59:23;;;;;;;0.82;0.30;;;20.50;46.90;;;;;;5105555;28;20050;-62
2023/02/23 07:01:50;;;;;;;1.42;0.50;;;20.40;46.90;;;;;;5105533;28;20782;-62
2023/02/23 07:04:17;;;;;;;2.13;0.73;;;20.40;46.90;;;;;;5105464;28;20508;-61
2023/02/23 07:06:44;;;;;;;4.45;1.15;;;20.40;46.80;;;;;;5105618;28;20070;-62
2023/02/23 07:09:14;;;;;;;1.38;0.60;;;20.40;46.70;;;;;;5114076;28;20047;-62
2023/02/23 07:11:43;;;;;;;2.55;1.10;;;20.40;46.70;;;;;;5116527;28;20540;-65
2023/02/23 07:14:12;;;;;;;6.70;1.10;;;20.40;46.20;;;;;;5124985;27;20050;-56
2023/02/23 07:16:39;;;;;;;2.38;1.20;;;20.50;46.70;;;;;;5108746;28;20062;-55
2023/02/23 07:19:07;;;;;;;2.22;1.20;;;20.50;46.70;;;;;;5094812;27;20316;-60
2023/02/23 07:21:34;;;;;;;1.73;1.42;;;20.60;46.60;;;;;;5127866;27;20043;-64
2023/02/23 07:24:03;;;;;;;4.75;2.58;;;20.70;46.50;;;;;;5129009;27;20047;-64
2023/02/23 07:26:32;;;;;;;3.47;0.95;;;20.70;46.30;;;;;;5125660;27;20086;-54
2023/02/23 07:28:59;;;;;;;3.50;1.70;;;20.80;46.10;;;;;;5129302;27;20460;-69
2023/02/23 07:31:27;;;;;;;1.17;0.93;;;20.90;45.80;;;;;;5131683;27;20415;-66
2023/02/23 07:33:54;;;;;;;1.77;1.67;;;21.00;45.70;;;;;;5132156;27;20088;-62
2023/02/23 07:36:22;;;;;;;1.73;1.63;;;21.10;45.40;;;;;;5129904;27;20437;-62
2023/02/23 07:38:49;;;;;;;2.80;1.00;;;21.10;45.20;;;;;;5131507;27;20046;-62
2023/02/23 07:41:16;;;;;;;2.58;0.75;;;21.30;45.20;;;;;;5129347;27;20141;-65
2023/02/23 07:43:45;;;;;;;1.88;1.77;;;21.30;44.80;;;;;;5128727;27;20510;-63
2023/02/23 07:46:12;;;;;;;1.70;1.60;;;21.40;44.40;;;;;;5096478;27;20038;-63
2023/02/23 07:48:43;;;;;;;1.73;1.52;;;21.50;44.10;;;;;;5127348;27;20088;-65
2023/02/23 07:51:11;;;;;;;2.92;1.52;;;21.60;44.00;;;;;;5116824;27;20134;-69
2023/02/23 07:53:39;;;;;;;1.58;1.48;;;21.60;43.80;;;;;;5115853;27;20051;-69
2023/02/23 07:56:09;;;;;;;1.40;1.30;;;21.70;43.70;;;;;;5129234;27;20519;-70
2023/02/23 07:58:36;;;;;;;2.90;2.47;;;21.80;43.60;;;;;;5130242;27;20357;-69
2023/02/23 08:01:05;;;;;;;2.22;2.03;;;21.80;43.40;;;;;;5129440;27;20043;-65
2023/02/23 08:03:33;;;;;;;2.83;2.03;;;22.00;43.30;;;;;;5128640;27;20054;-61
2023/02/23 08:06:01;;;;;;;2.05;1.95;;;22.00;43.10;;;;;;5124336;27;20032;-58
2023/02/23 08:08:28;;;;;;;1.50;1.17;;;22.10;43.00;;;;;;5128446;27;20054;-61
2023/02/23 08:11:00;;;;;;;3.47;1.58;;;22.20;42.90;;;;;;5123074;27;20039;-57
2023/02/23 08:13:30;;;;;;;2.58;2.22;;;22.30;42.50;;;;;;5122633;27;20050;-58
2023/02/23 08:15:58;;;;;;;2.08;1.45;;;22.30;42.50;;;;;;5128087;27;20047;-57
2023/02/23 08:18:26;;;;;;;2.53;1.42;;;22.30;42.40;;;;;;5126765;27;20483;-58
2023/02/23 08:20:58;;;;;;;1.20;1.15;;;22.40;42.30;;;;;;5122950;27;20054;-57
2023/02/23 08:23:25;;;;;;;1.73;1.50;;;22.50;42.10;;;;;;5118795;27;20047;-58
2023/02/23 08:25:53;;;;;;;4.43;2.40;;;22.50;42.00;;;;;;5125488;27;20820;-57
2023/02/23 08:28:21;;;;;;;3.78;1.50;;;22.60;41.80;;;;;;5128236;27;20582;-57
2023/02/23 08:30:49;;;;;;;2.15;1.48;;;22.60;41.60;;;;;;5124979;27;20046;-56
2023/02/23 08:33:16;;;;;;;2.63;2.47;;;22.70;41.50;;;;;;5121022;27;20039;-61
2023/02/23 08:35:44;;;;;;;2.05;1.95;;;22.70;41.50;;;;;;5127255;27;20051;-64
2023/02/23 08:38:12;;;;;;;1.92;1.83;;;22.70;41.40;;;;;;5129903;27;20035;-72
2023/02/23 08:40:40;;;;;;;2.35;2.15;;;22.80;41.10;;;;;;5130261;27;20178;-66
2023/02/23 08:43:07;;;;;;;1.75;1.65;;;22.80;41.20;;;;;;5129987;27;20031;-65
2023/02/23 08:45:34;;;;;;;1.38;1.30;;;22.90;41.20;;;;;;5115914;27;20051;-65
2023/02/23 08:48:01;;;;;;;2.67;2.17;;;22.90;41.00;;;;;;5128093;27;20126;-66
2023/02/23 08:50:28;;;;;;;2.90;2.50;;;22.90;40.90;;;;;;5125288;27;20418;-65
2023/02/23 08:52:57;;;;;;;1.85;1.77;;;23.00;40.80;;;;;;5129910;27;20035;-68
2023/02/23 08:55:24;;;;;;;2.05;1.50;;;23.00;40.60;;;;;;5131042;27;20119;-67
2023/02/23 08:57:51;;;;;;;2.75;1.92;;;23.00;40.60;;;;;;5140381;27;20417;-67
2023/02/23 09:00:19;;;;;;;3.72;2.85;;;23.10;40.60;;;;;;5127382;27;20116;-68
2023/02/23 09:02:47;;;;;;;1.00;1.00;;;23.10;40.40;;;;;;5108387;27;20040;-56
2023/02/23 09:05:15;;;;;;;1.15;0.98;;;23.10;41.10;;;;;;5107251;28;20126;-56
2023/02/23 09:07:44;;;;;;;0.95;0.95;;;23.20;41.40;;;;;;5106675;28;20590;-55
2023/02/23 09:10:14;;;;;;;0.60;0.60;;;23.20;41.40;;;;;;5124268;27;20545;-54
2023/02/23 09:12:41;;;;;;;1.10;1.00;;;23.20;41.40;;;;;;5127381;27;20043;-54
2023/02/23 09:15:10;;;;;;;1.58;0.65;;;23.20;41.40;;;;;;5126888;27;20039;-55
2023/02/23 09:17:38;;;;;;;2.03;1.45;;;23.20;41.50;;;;;;5126492;27;20049;-66
2023/02/23 09:20:08;;;;;;;3.72;1.75;;;23.20;40.80;;;;;;5122428;27;20027;-65
2023/02/23 09:22:35;;;;;;;2.28;1.50;;;23.20;40.40;;;;;;5125206;27;20059;-74
2023/02/23 09:25:03;;;;;;;2.25;2.05;;;23.20;40.20;;;;;;5128772;27;20043;-74
2023/02/23 09:27:32;;;;;;;3.22;1.65;;;23.20;40.10;;;;;;5128351;27;20039;-71
2023/02/23 09:30:00;;;;;;;1.73;1.63;;;23.20;40.50;;;;;;5127558;27;20720;-71
2023/02/23 09:32:27;;;;;;;4.00;3.63;;;23.20;40.20;;;;;;5122696;27;20044;-72
2023/02/23 09:34:54;;;;;;;2.55;1.67;;;23.20;40.20;;;;;;5130068;27;20043;-71
2023/02/23 09:37:23;;;;;;;1.63;1.52;;;23.20;40.20;;;;;;5127626;27;20100;-72
2023/02/23 09:39:51;;;;;;;1.92;1.83;;;23.20;40.20;;;;;;5112988;27;20521;-73
2023/02/23 09:42:28;;;;;;;3.78;2.03;;;23.20;40.10;;;;;;5108431;28;20050;-72
2023/02/23 09:45:08;;;;;;;3.85;2.10;;;23.30;40.10;;;;;;5107629;28;20044;-71
2023/02/23 09:47:45;;;;;;;3.17;1.90;;;23.30;40.20;;;;;;5107280;28;20134;-71
2023/02/23 09:50:18;;;;;;;3.53;1.52;;;23.30;40.10;;;;;;5087013;28;20040;-68
2023/02/23 09:52:50;;;;;;;3.55;1.58;;;23.30;40.40;;;;;;5106023;28;20073;-71
2023/02/23 09:55:17;;;;;;;1.95;1.63;;;23.40;40.40;;;;;;5106835;28;20460;-68
2023/02/23 09:57:47;;;;;;;2.38;2.28;;;23.40;40.30;;;;;;5104018;28;20209;-59
2023/02/23 10:00:21;;;;;;;2.10;2.00;;;23.40;40.00;;;;;;5103815;28;20059;-59
2023/02/23 10:03:03;;;;;;;2.42;2.22;;;23.40;40.00;;;;;;5103713;28;20039;-57
2023/02/23 10:05:33;;;;;;;2.88;2.15;;;23.40;40.00;;;;;;5120282;28;20071;-60
2023/02/23 10:08:08;;;;;;;4.82;1.70;;;23.50;40.10;;;;;;5124263;28;20108;-61
2023/02/23 10:10:43;;;;;;;3.80;2.40;;;23.40;40.00;;;;;;5103331;28;20043;-59
2023/02/23 10:13:17;;;;;;;2.33;1.95;;;23.40;39.70;;;;;;5103684;28;20046;-63
2023/02/23 10:15:51;;;;;;;4.80;1.60;;;23.40;39.70;;;;;;5103592;28;20112;-57
2023/02/23 10:18:28;;;;;;;1.95;1.85;;;23.40;39.80;;;;;;5103417;28;20043;-58
2023/02/23 10:21:03;;;;;;;5.70;2.13;;;23.40;39.80;;;;;;5119155;28;20051;-59
2023/02/23 10:23:34;;;;;;;6.53;2.13;;;23.40;40.30;;;;;;5123907;27;20058;-61
2023/02/23 10:26:02;;;;;;;4.18;1.75;;;23.40;39.90;;;;;;5124191;28;20773;-59
2023/02/23 10:28:33;;;;;;;2.35;2.17;;;23.40;39.80;;;;;;5123552;28;20415;-59
2023/02/23 10:31:04;;;;;;;2.85;1.60;;;23.40;39.70;;;;;;5123622;28;20150;-61
2023/02/23 10:33:35;;;;;;;6.28;3.20;;;23.40;39.90;;;;;;5105183;27;20043;-60
2023/02/23 10:36:12;;;;;;;1.88;1.77;;;23.40;39.80;;;;;;5121503;28;20084;-60
2023/02/23 10:38:40;;;;;;;3.42;2.55;;;23.40;39.80;;;;;;5107141;28;20045;-58
2023/02/23 10:41:09;;;;;;;3.40;3.10;;;23.40;40.10;;;;;;5123702;28;20039;-58
2023/02/23 10:43:36;;;;;;;5.07;2.78;;;23.40;41.70;;;;;;5124013;28;20129;-65
2023/02/23 10:46:07;;;;;;;3.03;2.80;;;23.40;42.70;;;;;;5123801;28;20043;-65
2023/02/23 10:48:38;;;;;;;3.10;2.90;;;23.40;43.40;;;;;;5126360;27;20138;-65
2023/02/23 10:51:13;;;;;;;5.45;3.60;;;23.40;43.80;;;;;;5127564;27;20059;-65
2023/02/23 10:53:40;;;;;;;3.65;3.33;;;23.40;44.10;;;;;;5127862;27;20092;-65
2023/02/23 10:56:11;;;;;;;3.75;2.72;;;23.40;44.20;;;;;;5127673;27;20331;-64
2023/02/23 10:58:45;;;;;;;9.68;5.10;;;23.40;44.70;;;;;;5127716;27;20043;-64
2023/02/23 11:01:14;;;;;;;4.47;4.05;;;23.40;44.80;;;;;;5127459;27;20039;-63
2023/02/23 11:03:44;;;;;;;9.23;3.72;;;23.40;45.10;;;;;;5127129;27;20073;-62
2023/02/23 11:06:30;;;;;;;6.82;3.47;;;23.40;45.80;;;;;;5126887;27;20035;-60
2023/02/23 11:08:58;;;;;;;6.30;4.32;;;23.40;45.70;;;;;;5126964;27;20323;-61
2023/02/23 11:11:27;;;;;;;7.20;3.38;;;23.40;45.50;;;;;;5127245;27;20108;-60
2023/02/23 11:13:56;;;;;;;9.05;3.15;;;23.40;45.60;;;;;;5127170;27;20066;-60
2023/02/23 11:16:30;;;;;;;5.85;3.47;;;23.50;45.50;;;;;;5127221;27;20145;-61
2023/02/23 11:18:59;;;;;;;6.80;4.70;;;23.40;45.60;;;;;;5126430;27;20054;-61
2023/02/23 11:21:32;;;;;;;4.38;4.00;;;23.40;45.90;;;;;;5126834;27;20442;-61
2023/02/23 11:24:04;;;;;;;4.38;3.67;;;23.40;46.00;;;;;;5127557;27;20043;-64
2023/02/23 11:26:37;;;;;;;4.65;3.10;;;23.40;46.50;;;;;;5127585;27;20141;-64
2023/02/23 11:29:14;;;;;;;4.82;3.58;;;23.40;46.70;;;;;;5108120;27;20055;-64
2023/02/23 11:31:48;;;;;;;4.88;4.13;;;23.40;46.90;;;;;;5127489;27;20488;-64
2023/02/23 11:34:23;;;;;;;10.20;3.40;;;23.50;46.80;;;;;;5125978;27;20055;-64
2023/02/23 11:37:00;;;;;;;6.10;3.70;;;23.50;47.40;;;;;;5106324;28;20136;-60
2023/02/23 11:39:28;;;;;;;6.75;2.05;;;23.50;47.20;;;;;;5116829;27;20039;-66
2023/02/23 11:42:16;;;;;;;4.05;3.65;;;23.40;48.00;;;;;;5127278;27;20041;-65
2023/02/23 11:44:44;;;;;;;5.32;3.88;;;23.50;47.50;;;;;;5127549;27;20077;-65
2023/02/23 11:47:18;;;;;;;3.17;2.42;;;23.50;47.50;;;;;;5126697;27;20590;-66
2023/02/23 11:49:47;;;;;;;7.60;3.15;;;23.50;47.70;;;;;;5126899;27;20050;-65
2023/02/23 11:52:17;;;;;;;3.78;3.40;;;23.50;47.60;;;;;;5126551;27;20039;-65
2023/02/23 11:54:52;;;;;;;4.88;3.63;;;23.50;47.70;;;;;;5126670;27;20058;-65
2023/02/23 11:57:24;;;;;;;3.15;2.95;;;23.50;47.40;;;;;;5126510;27;20054;-64
2023/02/23 11:59:52;;;;;;;5.65;4.97;;;23.50;47.70;;;;;;5127494;27;20051;-76
2023/02/23 12:02:26;;;;;;;6.68;3.65;;;23.50;47.70;;;;;;5131481;27;20047;-68
2023/02/23 12:05:03;;;;;;;3.40;2.17;;;23.50;47.80;;;;;;5128158;27;20154;-65
2023/02/23 12:07:41;;;;;;;5.88;3.63;;;23.50;47.90;;;;;;5124899;27;20418;-56
2023/02/23 12:10:19;;;;;;;3.80;3.28;;;23.50;47.90;;;;;;5122692;27;20047;-59
2023/02/23 12:50:26;;;;;;;5.35;2.22;;;23.50;51.80;;;;;;5050781;27;20432;-64
